Time;durP1;ratioP1;P1;durP2;ratioP2;P2;SDS_P1;SDS_P2;PMS_P1;PMS_P2;Temp;Humidity;BMP_temperature;BMP_pressure;BME280_temperature;BME280_humidity;BME280_pressure;Samples;Min_cycle;Max_cycle;Signal;HPM_P1;HPM_P2
2021/09/10 00:02:25;;;;;;;22.60;14.60;;;18.90;99.90;;;;;;5050863;28;20231;-64
2021/09/10 00:04:54;;;;;;;23.33;14.10;;;18.80;99.90;;;;;;5053969;28;20181;-64
2021/09/10 00:07:22;;;;;;;20.77;13.93;;;18.80;99.90;;;;;;5022539;28;20220;-64
2021/09/10 00:09:52;;;;;;;20.03;13.87;;;18.80;99.90;;;;;;5038694;28;20526;-64
2021/09/10 00:12:20;;;;;;;21.43;13.73;;;18.70;99.90;;;;;;5050373;28;20380;-64
2021/09/10 00:14:49;;;;;;;27.73;14.97;;;18.70;99.90;;;;;;5037271;28;20177;-64
2021/09/10 00:17:17;;;;;;;24.57;13.93;;;18.70;99.90;;;;;;5053570;28;20193;-64
2021/09/10 00:19:46;;;;;;;16.63;12.30;;;18.70;99.90;;;;;;5057214;28;20194;-64
2021/09/10 00:22:14;;;;;;;20.37;13.53;;;18.80;99.90;;;;;;5051052;28;20193;-65
2021/09/10 00:24:43;;;;;;;21.03;13.30;;;18.80;99.90;;;;;;5055252;28;20177;-64
2021/09/10 00:27:13;;;;;;;17.57;12.50;;;18.80;99.90;;;;;;5051684;28;20224;-64
2021/09/10 00:29:42;;;;;;;19.13;12.17;;;18.80;99.90;;;;;;5053135;28;20205;-64
2021/09/10 00:32:10;;;;;;;17.67;12.67;;;18.70;99.90;;;;;;5055225;28;20474;-64
2021/09/10 00:34:39;;;;;;;15.87;11.93;;;18.80;99.90;;;;;;5039505;28;20455;-64
2021/09/10 00:37:07;;;;;;;17.27;12.00;;;18.80;99.90;;;;;;5049682;28;20188;-64
2021/09/10 00:39:36;;;;;;;18.50;11.87;;;18.70;99.90;;;;;;5037710;28;20194;-64
2021/09/10 00:42:04;;;;;;;18.67;11.37;;;18.80;99.90;;;;;;5050923;28;20197;-64
2021/09/10 00:44:34;;;;;;;17.57;10.73;;;18.80;99.90;;;;;;5053629;28;20189;-64
2021/09/10 00:47:03;;;;;;;14.90;10.23;;;18.90;99.90;;;;;;5037009;28;20204;-64
2021/09/10 00:49:32;;;;;;;12.37;9.97;;;18.80;99.90;;;;;;5053110;28;20192;-65
2021/09/10 00:52:00;;;;;;;14.17;9.93;;;18.80;99.90;;;;;;5057109;28;20209;-64
2021/09/10 00:54:29;;;;;;;13.30;9.60;;;18.80;99.90;;;;;;5054272;28;20469;-64
2021/09/10 00:56:59;;;;;;;11.40;9.13;;;18.70;99.90;;;;;;5036832;28;20307;-63
2021/09/10 00:59:34;;;;;;;13.67;8.17;;;18.80;99.90;;;;;;5039789;28;20204;-64
2021/09/10 01:02:04;;;;;;;14.03;8.80;;;18.80;99.90;;;;;;5040116;28;20313;-64
2021/09/10 01:04:33;;;;;;;10.83;8.10;;;18.80;99.90;;;;;;5054994;28;20208;-64
2021/09/10 01:07:03;;;;;;;10.53;7.80;;;18.80;99.90;;;;;;5056445;28;20351;-64
2021/09/10 01:09:32;;;;;;;10.80;8.07;;;18.80;99.90;;;;;;5061669;28;20269;-64
2021/09/10 01:12:01;;;;;;;11.63;8.37;;;18.80;99.90;;;;;;5055298;28;20193;-64
2021/09/10 01:14:32;;;;;;;10.90;8.50;;;18.80;99.90;;;;;;5038706;28;20192;-64
2021/09/10 01:17:02;;;;;;;14.37;8.93;;;18.70;99.90;;;;;;5056811;28;20279;-64
2021/09/10 01:19:32;;;;;;;11.53;8.57;;;18.70;99.90;;;;;;5038085;28;20340;-64
2021/09/10 01:22:04;;;;;;;11.27;7.47;;;18.70;99.90;;;;;;5058747;28;20472;-64
2021/09/10 01:24:37;;;;;;;11.07;8.03;;;18.70;99.90;;;;;;5057113;28;20191;-64
2021/09/10 01:27:07;;;;;;;12.27;8.50;;;18.80;99.90;;;;;;5039755;28;20475;-64
2021/09/10 01:29:37;;;;;;;10.10;7.97;;;18.80;99.90;;;;;;5054059;28;20455;-64
2021/09/10 01:32:08;;;;;;;9.03;8.10;;;18.80;99.90;;;;;;5025459;28;20176;-63
2021/09/10 01:34:37;;;;;;;9.87;8.27;;;18.80;99.90;;;;;;5058362;28;20447;-64
2021/09/10 01:37:05;;;;;;;14.87;9.33;;;18.70;99.90;;;;;;5059513;28;20206;-64
2021/09/10 01:39:35;;;;;;;10.80;9.33;;;18.60;99.90;;;;;;5053346;28;20189;-64
2021/09/10 01:42:04;;;;;;;13.63;8.83;;;18.70;99.90;;;;;;5054522;28;20253;-64
2021/09/10 01:44:35;;;;;;;13.30;9.40;;;18.70;99.90;;;;;;5056404;28;20200;-64
2021/09/10 01:47:04;;;;;;;14.43;9.10;;;18.70;99.90;;;;;;5024524;28;20212;-64
2021/09/10 01:49:33;;;;;;;11.87;8.53;;;18.70;99.90;;;;;;5041250;28;20184;-64
2021/09/10 01:52:01;;;;;;;12.77;9.30;;;18.70;99.90;;;;;;5059322;28;20200;-64
2021/09/10 01:54:30;;;;;;;14.00;8.90;;;18.60;99.90;;;;;;5038856;28;20238;-64
2021/09/10 01:57:00;;;;;;;10.33;8.80;;;18.60;99.90;;;;;;5058143;28;20218;-63
2021/09/10 01:59:29;;;;;;;11.50;8.40;;;18.70;99.90;;;;;;5058793;28;20316;-64
2021/09/10 02:01:58;;;;;;;9.80;8.80;;;18.60;99.90;;;;;;5055516;28;20242;-65
2021/09/10 02:04:27;;;;;;;8.93;8.03;;;18.60;99.90;;;;;;5051052;28;20204;-64
2021/09/10 02:06:55;;;;;;;11.93;8.30;;;18.60;99.90;;;;;;5035471;28;20192;-63
2021/09/10 02:09:23;;;;;;;9.30;8.40;;;18.60;99.90;;;;;;5053515;28;20177;-63
2021/09/10 02:11:52;;;;;;;12.83;8.57;;;18.60;99.90;;;;;;5055859;28;20873;-64
2021/09/10 02:14:22;;;;;;;12.00;8.53;;;18.50;99.90;;;;;;5053976;28;20188;-65
2021/09/10 02:16:50;;;;;;;10.80;8.20;;;18.50;99.90;;;;;;5051158;28;20420;-64
2021/09/10 02:19:19;;;;;;;10.07;7.60;;;18.40;99.90;;;;;;5058385;28;20184;-64
2021/09/10 02:21:50;;;;;;;10.17;7.87;;;18.40;99.90;;;;;;5055740;28;20185;-64
2021/09/10 02:24:21;;;;;;;9.70;7.77;;;18.40;99.90;;;;;;5051543;28;20251;-64
2021/09/10 02:26:51;;;;;;;11.93;8.47;;;18.40;99.90;;;;;;5039898;28;20213;-64
2021/09/10 02:29:23;;;;;;;9.17;7.63;;;18.40;99.90;;;;;;5050029;28;20452;-64
2021/09/10 02:31:52;;;;;;;9.57;7.60;;;18.40;99.90;;;;;;5040457;28;20332;-64
2021/09/10 02:34:20;;;;;;;8.90;7.43;;;18.40;99.90;;;;;;5056362;28;20192;-63
2021/09/10 02:36:49;;;;;;;10.63;7.77;;;18.40;99.90;;;;;;5053835;28;20185;-64
2021/09/10 02:39:17;;;;;;;12.07;7.77;;;18.30;99.90;;;;;;5052130;28;20368;-64
2021/09/10 02:41:46;;;;;;;12.93;8.10;;;18.30;99.90;;;;;;5054416;28;20181;-63
2021/09/10 02:44:15;;;;;;;12.33;7.73;;;18.30;99.90;;;;;;5056343;28;20177;-64
2021/09/10 02:46:45;;;;;;;11.23;7.10;;;18.30;99.90;;;;;;5055505;28;20177;-63
2021/09/10 02:49:13;;;;;;;12.00;7.13;;;18.30;99.90;;;;;;5035240;28;20242;-64
2021/09/10 02:51:41;;;;;;;13.30;7.07;;;18.30;99.90;;;;;;5055886;28;20373;-64
2021/09/10 02:54:11;;;;;;;12.40;7.33;;;18.30;99.90;;;;;;5050982;28;20211;-64
2021/09/10 02:56:39;;;;;;;8.17;6.60;;;18.20;99.90;;;;;;5055232;28;20238;-64
2021/09/10 02:59:08;;;;;;;10.73;7.10;;;18.20;99.90;;;;;;5051273;28;20363;-65
2021/09/10 03:01:36;;;;;;;7.27;6.57;;;18.20;99.90;;;;;;5039783;28;20345;-64
2021/09/10 03:04:06;;;;;;;7.73;6.93;;;18.10;99.90;;;;;;5053591;28;20364;-64
2021/09/10 03:06:35;;;;;;;11.87;6.97;;;18.20;99.90;;;;;;5055333;28;20201;-64
2021/09/10 03:09:04;;;;;;;10.50;7.10;;;18.20;99.90;;;;;;5058156;28;20228;-64
2021/09/10 03:11:32;;;;;;;10.00;7.13;;;18.20;99.90;;;;;;5056890;28;20494;-64
2021/09/10 03:14:00;;;;;;;7.27;6.60;;;18.20;99.90;;;;;;5056575;28;20196;-65
2021/09/10 03:16:31;;;;;;;9.40;7.00;;;18.20;99.90;;;;;;5050510;28;20182;-64
2021/09/10 03:19:00;;;;;;;8.73;6.90;;;18.20;99.90;;;;;;5053563;28;20478;-64
2021/09/10 03:21:30;;;;;;;8.23;7.17;;;18.20;99.90;;;;;;5052310;28;20181;-64
2021/09/10 03:23:59;;;;;;;8.67;7.63;;;18.20;99.90;;;;;;5053605;28;20206;-64
2021/09/10 03:26:27;;;;;;;10.70;7.70;;;18.20;99.90;;;;;;5049805;28;20235;-64
2021/09/10 03:28:56;;;;;;;10.77;6.97;;;18.20;99.90;;;;;;5054025;28;20222;-64
2021/09/10 03:31:24;;;;;;;10.67;7.10;;;18.20;99.90;;;;;;5054420;28;20199;-64
2021/09/10 03:33:52;;;;;;;11.43;6.70;;;18.20;99.90;;;;;;5056124;28;20176;-64
2021/09/10 03:36:21;;;;;;;13.23;7.33;;;18.20;99.90;;;;;;5054305;28;21385;-64
2021/09/10 03:38:50;;;;;;;7.53;6.60;;;18.20;99.90;;;;;;5056988;28;20852;-64
2021/09/10 03:41:19;;;;;;;9.87;6.50;;;18.20;99.90;;;;;;5056812;28;20235;-64
2021/09/10 03:43:49;;;;;;;9.07;7.47;;;18.10;99.90;;;;;;5055491;28;20469;-64
2021/09/10 03:46:18;;;;;;;13.20;7.30;;;18.20;99.90;;;;;;5036122;28;20439;-64
2021/09/10 03:48:47;;;;;;;11.53;6.83;;;18.20;99.90;;;;;;5056124;28;20210;-64
2021/09/10 03:51:16;;;;;;;9.40;6.43;;;18.10;99.90;;;;;;5035571;28;20194;-64
2021/09/10 03:53:45;;;;;;;11.57;7.23;;;18.20;99.90;;;;;;5036840;28;20189;-63
2021/09/10 03:56:14;;;;;;;9.50;7.00;;;18.20;99.90;;;;;;5038340;28;20196;-64
2021/09/10 03:58:44;;;;;;;10.33;7.50;;;18.20;99.90;;;;;;5020202;28;20193;-64
2021/09/10 04:01:13;;;;;;;8.97;7.10;;;18.20;99.90;;;;;;5034554;28;20389;-65
2021/09/10 04:03:42;;;;;;;9.23;6.63;;;18.10;99.90;;;;;;5055409;28;20181;-64
2021/09/10 04:06:13;;;;;;;7.83;6.43;;;18.10;99.90;;;;;;5036297;28;20370;-64
2021/09/10 04:08:44;;;;;;;12.43;7.13;;;18.10;99.90;;;;;;5049036;28;20214;-64
2021/09/10 04:11:14;;;;;;;8.33;6.37;;;18.10;99.90;;;;;;5053709;28;20296;-64
2021/09/10 04:13:43;;;;;;;10.47;6.73;;;18.10;99.90;;;;;;5052788;28;20618;-65
2021/09/10 04:16:11;;;;;;;12.47;6.67;;;18.10;99.90;;;;;;5036923;28;20284;-64
2021/09/10 04:18:43;;;;;;;6.47;5.80;;;18.10;99.90;;;;;;5055292;28;20242;-64
2021/09/10 04:21:11;;;;;;;7.27;6.53;;;18.10;99.90;;;;;;5054058;28;20191;-64
2021/09/10 04:23:40;;;;;;;8.30;5.87;;;18.00;99.90;;;;;;5053944;28;20203;-64
2021/09/10 04:26:08;;;;;;;6.63;5.87;;;18.00;99.90;;;;;;5052587;28;20216;-64
2021/09/10 04:28:38;;;;;;;8.10;6.40;;;18.00;99.90;;;;;;5047890;28;20250;-64
2021/09/10 04:31:07;;;;;;;8.30;7.03;;;18.00;99.90;;;;;;5054865;28;20251;-64
2021/09/10 04:33:35;;;;;;;13.47;7.37;;;18.00;99.90;;;;;;5054463;28;20400;-64
2021/09/10 04:36:04;;;;;;;10.03;7.17;;;18.00;99.90;;;;;;5019603;28;20180;-64
2021/09/10 04:38:33;;;;;;;9.53;7.10;;;18.00;99.90;;;;;;5056696;28;20308;-65
2021/09/10 04:41:01;;;;;;;12.00;6.80;;;18.00;99.90;;;;;;5050686;28;20434;-64
2021/09/10 04:43:30;;;;;;;8.53;6.73;;;18.00;99.90;;;;;;5036986;28;20355;-64
2021/09/10 04:46:00;;;;;;;11.07;7.30;;;18.00;99.90;;;;;;5032686;28;20176;-64
2021/09/10 04:48:29;;;;;;;9.87;6.93;;;18.00;99.90;;;;;;5051923;28;20402;-64
2021/09/10 04:50:57;;;;;;;7.67;6.90;;;18.10;99.90;;;;;;5048308;28;20207;-64
2021/09/10 04:53:26;;;;;;;10.73;6.87;;;18.20;99.90;;;;;;5056325;28;20309;-65
2021/09/10 04:55:56;;;;;;;9.77;6.80;;;18.20;99.90;;;;;;5036029;28;20262;-65
2021/09/10 04:58:25;;;;;;;12.00;7.03;;;18.10;99.90;;;;;;5037001;28;20188;-64
2021/09/10 05:00:56;;;;;;;11.67;7.20;;;18.10;99.90;;;;;;5050697;28;20332;-64
2021/09/10 05:03:26;;;;;;;7.63;6.97;;;18.10;99.90;;;;;;5052905;28;20409;-65
2021/09/10 05:05:55;;;;;;;9.23;7.57;;;18.10;99.90;;;;;;5049883;28;20192;-64
2021/09/10 05:08:23;;;;;;;10.73;7.50;;;18.10;99.90;;;;;;5053064;28;20201;-64
2021/09/10 05:10:52;;;;;;;12.20;7.83;;;18.10;99.90;;;;;;5050504;28;20218;-65
2021/09/10 05:13:20;;;;;;;13.37;7.40;;;18.10;99.90;;;;;;5036293;28;20204;-65
2021/09/10 05:15:48;;;;;;;11.53;7.70;;;18.10;99.90;;;;;;5053775;28;20188;-64
2021/09/10 05:18:17;;;;;;;11.80;7.70;;;18.10;99.90;;;;;;5053220;28;20190;-65
2021/09/10 05:20:49;;;;;;;10.60;7.80;;;18.10;99.90;;;;;;5051795;28;20266;-64
2021/09/10 05:23:18;;;;;;;11.00;8.10;;;18.00;99.90;;;;;;5054983;28;20371;-64
2021/09/10 05:25:46;;;;;;;10.80;7.40;;;18.10;99.90;;;;;;5049615;28;20288;-64
2021/09/10 05:28:14;;;;;;;9.67;7.60;;;18.10;99.90;;;;;;5056617;28;20424;-65
2021/09/10 05:30:43;;;;;;;11.37;7.73;;;18.10;99.90;;;;;;5033332;28;20223;-65
2021/09/10 05:33:11;;;;;;;12.93;7.30;;;18.10;99.90;;;;;;5051023;28;20200;-64
2021/09/10 05:35:40;;;;;;;10.07;7.17;;;18.00;99.90;;;;;;5051338;28;20810;-64
2021/09/10 05:38:13;;;;;;;12.03;8.20;;;18.00;99.90;;;;;;5059323;28;20193;-64
2021/09/10 05:40:41;;;;;;;12.00;7.20;;;18.00;99.90;;;;;;5038259;28;20195;-64
2021/09/10 05:43:10;;;;;;;15.70;8.03;;;18.00;99.90;;;;;;5059371;28;20184;-64
2021/09/10 05:45:39;;;;;;;11.23;8.27;;;17.90;99.90;;;;;;5039992;28;20526;-65
2021/09/10 05:48:08;;;;;;;11.83;7.67;;;18.00;99.90;;;;;;5057579;28;20187;-65
2021/09/10 05:50:37;;;;;;;17.67;7.53;;;18.00;99.90;;;;;;5057415;28;20463;-65
2021/09/10 05:53:09;;;;;;;9.90;7.00;;;18.00;99.90;;;;;;5057681;28;20188;-64
2021/09/10 05:55:40;;;;;;;15.03;7.70;;;18.00;99.90;;;;;;5052242;28;20219;-64
2021/09/10 05:58:08;;;;;;;13.77;8.10;;;18.00;99.90;;;;;;5057196;28;20183;-65
2021/09/10 06:00:38;;;;;;;12.03;7.80;;;18.00;99.90;;;;;;5058660;28;20298;-64
2021/09/10 06:03:07;;;;;;;12.20;7.77;;;18.00;99.90;;;;;;5058006;28;20333;-64
2021/09/10 06:05:36;;;;;;;14.17;7.30;;;18.10;99.90;;;;;;5061658;28;20237;-65
2021/09/10 06:08:05;;;;;;;15.73;7.47;;;18.00;99.90;;;;;;5058761;28;20446;-64
2021/09/10 06:10:34;;;;;;;13.70;7.97;;;18.10;99.90;;;;;;5057609;28;20284;-65
2021/09/10 06:13:05;;;;;;;11.40;7.30;;;18.10;99.90;;;;;;5057441;28;20444;-64
2021/09/10 06:15:33;;;;;;;16.60;8.00;;;18.20;99.90;;;;;;5060574;28;20351;-65
2021/09/10 06:18:03;;;;;;;15.40;8.03;;;18.30;99.90;;;;;;5061405;28;20369;-65
2021/09/10 06:20:32;;;;;;;10.83;7.40;;;18.40;99.90;;;;;;5060147;28;20185;-65
2021/09/10 06:23:00;;;;;;;11.53;7.43;;;18.40;99.90;;;;;;5060479;28;20199;-65
2021/09/10 06:25:29;;;;;;;11.00;7.63;;;18.40;99.90;;;;;;5061881;28;20216;-66
2021/09/10 06:27:58;;;;;;;10.50;7.30;;;18.50;99.90;;;;;;5062309;28;20192;-65
2021/09/10 06:30:28;;;;;;;19.43;8.77;;;18.50;99.90;;;;;;5055128;28;20219;-64
2021/09/10 06:32:57;;;;;;;12.23;6.70;;;18.60;99.90;;;;;;5057912;28;20438;-64
2021/09/10 06:35:29;;;;;;;11.37;6.70;;;18.70;99.90;;;;;;5051337;28;20395;-65
2021/09/10 06:37:58;;;;;;;8.77;6.80;;;18.60;99.90;;;;;;5055214;28;20199;-64
2021/09/10 06:40:27;;;;;;;9.77;6.67;;;18.60;99.90;;;;;;5060683;28;20177;-65
2021/09/10 06:42:55;;;;;;;12.00;7.37;;;18.70;99.90;;;;;;5056671;28;20181;-65
2021/09/10 06:45:24;;;;;;;10.17;6.90;;;18.80;99.90;;;;;;5059139;28;20208;-65
2021/09/10 06:47:55;;;;;;;9.57;7.63;;;18.80;99.90;;;;;;5045886;28;20193;-65
2021/09/10 06:50:24;;;;;;;7.70;6.90;;;18.80;99.90;;;;;;5057298;28;20206;-65
2021/09/10 06:52:53;;;;;;;8.80;7.07;;;18.80;99.90;;;;;;5057212;28;20199;-65
2021/09/10 06:55:22;;;;;;;7.80;7.00;;;18.80;99.90;;;;;;5055686;28;20204;-65
2021/09/10 06:57:50;;;;;;;9.33;6.93;;;18.70;99.90;;;;;;5055447;28;20286;-65
2021/09/10 07:00:19;;;;;;;11.20;6.93;;;18.80;99.90;;;;;;5054906;28;20181;-65
2021/09/10 07:02:48;;;;;;;7.80;6.87;;;18.80;99.90;;;;;;5056013;28;20184;-65
2021/09/10 07:05:19;;;;;;;12.07;6.73;;;18.80;99.90;;;;;;5051785;28;20449;-65
2021/09/10 07:07:47;;;;;;;7.50;6.80;;;18.80;99.90;;;;;;5056727;28;20189;-65
2021/09/10 07:10:17;;;;;;;9.77;6.70;;;19.00;99.90;;;;;;5057698;28;20209;-65
2021/09/10 07:12:46;;;;;;;10.53;6.90;;;19.00;99.90;;;;;;5038003;28;20343;-65
2021/09/10 07:15:15;;;;;;;10.83;6.57;;;19.10;99.90;;;;;;5041655;28;20435;-65
2021/09/10 07:17:44;;;;;;;10.70;7.30;;;19.10;99.90;;;;;;5042633;28;20302;-65
2021/09/10 07:20:15;;;;;;;9.37;6.87;;;19.10;99.90;;;;;;5058581;28;20412;-65
2021/09/10 07:22:45;;;;;;;8.57;6.63;;;19.20;99.90;;;;;;5037157;28;20219;-65
2021/09/10 07:25:14;;;;;;;8.63;6.93;;;19.20;99.90;;;;;;5056029;28;20365;-65
2021/09/10 07:27:42;;;;;;;12.20;7.20;;;19.40;99.90;;;;;;5056288;28;20189;-65
2021/09/10 07:30:12;;;;;;;7.63;6.73;;;19.50;99.90;;;;;;5057513;28;20281;-65
2021/09/10 07:32:41;;;;;;;9.43;6.80;;;19.60;99.90;;;;;;5021287;28;20176;-65
2021/09/10 07:35:11;;;;;;;7.50;6.77;;;19.70;99.90;;;;;;5057325;28;20446;-65
2021/09/10 07:37:40;;;;;;;9.67;7.07;;;19.70;99.90;;;;;;5059334;28;20187;-65
2021/09/10 07:40:12;;;;;;;9.13;6.90;;;19.80;99.90;;;;;;5060782;28;20181;-65
2021/09/10 07:42:41;;;;;;;8.83;6.80;;;19.80;99.90;;;;;;5059395;28;20434;-65
2021/09/10 07:45:12;;;;;;;8.40;7.17;;;19.90;99.90;;;;;;5057938;28;20185;-65
2021/09/10 07:47:42;;;;;;;8.03;6.73;;;20.00;99.90;;;;;;5056337;28;20408;-65
2021/09/10 07:50:11;;;;;;;7.63;6.27;;;20.20;99.90;;;;;;5055927;28;20217;-65
2021/09/10 07:52:40;;;;;;;7.90;6.50;;;20.30;99.90;;;;;;5053670;28;20269;-66
2021/09/10 07:55:11;;;;;;;15.67;6.50;;;20.50;99.90;;;;;;5057530;28;20242;-64
2021/09/10 07:57:39;;;;;;;6.80;6.17;;;20.50;99.90;;;;;;5059338;28;20195;-66
2021/09/10 08:00:09;;;;;;;7.40;6.70;;;20.50;99.90;;;;;;5037674;28;20624;-65
2021/09/10 08:02:38;;;;;;;8.57;6.00;;;20.50;99.90;;;;;;5057671;28;20467;-65
2021/09/10 08:05:08;;;;;;;7.33;6.23;;;20.50;99.90;;;;;;5057750;28;20246;-65
2021/09/10 08:07:37;;;;;;;8.83;6.43;;;20.60;99.90;;;;;;5052980;28;20197;-65
2021/09/10 08:10:11;;;;;;;10.00;6.40;;;20.50;99.90;;;;;;5059464;28;20313;-65
2021/09/10 08:12:42;;;;;;;7.47;6.20;;;20.60;99.90;;;;;;5056341;28;20191;-65
2021/09/10 08:15:14;;;;;;;11.20;6.43;;;20.50;99.90;;;;;;5021339;28;20184;-65
2021/09/10 08:17:43;;;;;;;8.03;6.23;;;20.50;99.90;;;;;;5050566;28;20261;-66
2021/09/10 08:20:13;;;;;;;8.90;6.57;;;20.40;99.90;;;;;;5059997;28;20355;-65
2021/09/10 08:22:42;;;;;;;7.60;6.10;;;20.40;99.90;;;;;;5056508;28;20180;-65
2021/09/10 08:25:12;;;;;;;8.53;6.27;;;20.40;99.90;;;;;;5054461;28;20355;-65
2021/09/10 08:27:42;;;;;;;10.13;6.63;;;20.30;99.90;;;;;;5057313;28;20187;-65
2021/09/10 08:30:12;;;;;;;8.10;6.30;;;20.30;99.90;;;;;;5059226;28;20437;-65
2021/09/10 08:32:40;;;;;;;7.73;6.07;;;20.30;99.90;;;;;;5056464;28;20180;-65
2021/09/10 08:35:09;;;;;;;10.17;7.10;;;20.20;99.90;;;;;;5058797;28;20424;-65
2021/09/10 08:37:38;;;;;;;10.27;6.23;;;20.20;99.90;;;;;;5056981;28;20205;-65
2021/09/10 08:40:08;;;;;;;8.07;7.30;;;20.20;99.90;;;;;;5041008;28;20184;-66
2021/09/10 08:42:36;;;;;;;8.83;6.70;;;20.10;99.90;;;;;;5057491;28;20246;-65
2021/09/10 08:45:11;;;;;;;6.97;6.20;;;20.20;99.90;;;;;;5058730;28;20197;-65
2021/09/10 08:47:40;;;;;;;9.83;7.53;;;20.10;99.90;;;;;;5035973;28;20222;-65
2021/09/10 08:50:09;;;;;;;9.13;7.77;;;20.10;99.90;;;;;;5055521;28;20470;-65
2021/09/10 08:52:38;;;;;;;13.17;8.23;;;20.10;99.90;;;;;;5052202;28;20411;-65
2021/09/10 08:55:07;;;;;;;9.50;7.37;;;20.20;99.90;;;;;;5057090;28;20207;-65
2021/09/10 08:57:36;;;;;;;8.30;7.33;;;20.20;99.90;;;;;;5053396;28;20312;-65
2021/09/10 09:00:10;;;;;;;10.37;7.80;;;20.30;99.90;;;;;;5055926;28;20435;-65
2021/09/10 09:02:39;;;;;;;11.73;8.70;;;20.30;99.90;;;;;;5056730;28;20222;-65
2021/09/10 09:05:09;;;;;;;11.53;8.97;;;20.30;99.90;;;;;;5056648;28;20359;-65
2021/09/10 09:07:41;;;;;;;12.13;9.17;;;20.30;99.90;;;;;;5057970;28;20209;-65
2021/09/10 09:10:10;;;;;;;11.07;9.90;;;20.30;99.90;;;;;;5058024;28;20188;-65
2021/09/10 09:12:39;;;;;;;11.03;9.93;;;20.20;99.90;;;;;;5056091;28;20209;-65
2021/09/10 09:15:09;;;;;;;11.70;9.33;;;20.20;99.90;;;;;;5060239;28;20223;-65
2021/09/10 09:17:41;;;;;;;13.37;9.70;;;20.20;99.90;;;;;;5062756;28;20205;-65
2021/09/10 09:20:18;;;;;;;11.63;9.70;;;20.30;99.90;;;;;;5057385;28;20189;-65
2021/09/10 09:23:08;;;;;;;14.63;9.57;;;20.30;99.90;;;;;;5057946;28;20185;-65
2021/09/10 09:25:40;;;;;;;16.70;9.43;;;20.30;99.90;;;;;;5054276;28;20220;-65
2021/09/10 09:28:21;;;;;;;12.00;9.53;;;20.40;99.90;;;;;;5049177;28;20224;-65
2021/09/10 09:30:51;;;;;;;11.03;9.97;;;20.50;99.90;;;;;;5055650;28;20263;-65
2021/09/10 09:33:25;;;;;;;13.40;9.67;;;20.50;99.90;;;;;;5061627;28;20252;-65
2021/09/10 09:35:57;;;;;;;13.10;9.07;;;20.60;99.90;;;;;;5061654;28;20188;-64
2021/09/10 09:38:29;;;;;;;10.67;9.30;;;20.70;99.90;;;;;;5039053;28;20173;-65
2021/09/10 09:40:59;;;;;;;11.40;8.60;;;20.70;99.90;;;;;;5055860;28;20420;-65
2021/09/10 09:43:30;;;;;;;13.47;8.60;;;20.60;99.90;;;;;;5060430;28;20197;-64
2021/09/10 09:46:00;;;;;;;15.47;8.37;;;20.70;99.90;;;;;;5060732;28;21335;-64
2021/09/10 09:48:31;;;;;;;14.07;9.20;;;20.80;99.90;;;;;;5058955;28;20192;-65
2021/09/10 09:51:00;;;;;;;10.67;8.57;;;21.00;99.90;;;;;;5058695;28;20619;-65
2021/09/10 09:53:29;;;;;;;14.07;9.13;;;20.90;99.90;;;;;;5060446;28;20209;-65
2021/09/10 09:55:59;;;;;;;12.30;8.93;;;21.00;99.90;;;;;;5056311;28;20215;-65
2021/09/10 09:58:30;;;;;;;14.80;8.87;;;21.00;99.90;;;;;;5057597;28;20317;-66
2021/09/10 10:01:00;;;;;;;11.20;9.13;;;21.00;99.90;;;;;;5054439;28;20192;-65
2021/09/10 10:03:31;;;;;;;9.80;8.60;;;21.20;99.90;;;;;;5041889;28;20200;-66
2021/09/10 10:06:21;;;;;;;9.47;8.53;;;21.20;99.90;;;;;;5057300;28;20268;-65
2021/09/10 10:08:55;;;;;;;12.07;9.80;;;21.20;99.90;;;;;;5057374;28;20216;-65
2021/09/10 10:11:27;;;;;;;12.70;10.03;;;21.20;99.90;;;;;;5021941;28;20231;-65
2021/09/10 10:13:59;;;;;;;13.27;10.27;;;21.20;99.90;;;;;;5057143;28;20260;-65
2021/09/10 10:16:35;;;;;;;14.37;9.27;;;21.10;99.90;;;;;;5039262;28;20192;-65
2021/09/10 10:19:08;;;;;;;9.43;8.33;;;21.20;99.90;;;;;;5056770;28;20184;-65
2021/09/10 10:21:55;;;;;;;11.50;8.90;;;21.30;99.90;;;;;;5057180;28;20192;-65
2021/09/10 10:24:43;;;;;;;8.97;8.17;;;21.30;99.90;;;;;;5054161;28;20192;-65
2021/09/10 10:27:26;;;;;;;9.77;7.73;;;21.40;99.90;;;;;;5057560;28;20219;-65
2021/09/10 10:29:55;;;;;;;8.63;7.83;;;21.40;99.90;;;;;;5058590;28;20188;-65
2021/09/10 10:32:32;;;;;;;11.53;8.40;;;21.50;99.90;;;;;;5049880;28;20217;-65
2021/09/10 10:35:30;;;;;;;10.93;7.73;;;21.50;99.90;;;;;;5053557;28;20242;-65
2021/09/10 10:38:06;;;;;;;8.07;7.13;;;21.50;99.90;;;;;;5022925;28;20414;-65
2021/09/10 10:40:36;;;;;;;10.40;7.70;;;21.50;99.90;;;;;;5057760;28;20203;-65
2021/09/10 10:43:09;;;;;;;9.60;7.63;;;21.60;99.90;;;;;;5056059;28;20176;-65
2021/09/10 10:46:00;;;;;;;9.30;7.43;;;21.70;99.90;;;;;;5054469;28;20355;-65
2021/09/10 10:48:49;;;;;;;8.90;7.27;;;21.80;99.90;;;;;;5038195;28;20180;-65
2021/09/10 10:51:42;;;;;;;8.10;7.40;;;21.90;99.90;;;;;;5054429;28;20593;-65
2021/09/10 10:54:15;;;;;;;9.63;7.70;;;22.20;99.90;;;;;;5057247;28;20188;-64
2021/09/10 10:56:47;;;;;;;9.17;7.93;;;22.30;99.90;;;;;;5054448;28;20324;-65
2021/09/10 10:59:35;;;;;;;8.33;7.53;;;22.30;99.90;;;;;;5050552;28;20239;-66
2021/09/10 11:02:25;;;;;;;10.70;8.07;;;22.40;99.90;;;;;;5056119;28;20192;-65
2021/09/10 11:05:00;;;;;;;7.93;7.13;;;22.40;99.90;;;;;;5035394;28;20332;-65
2021/09/10 11:07:31;;;;;;;8.87;7.97;;;22.50;99.90;;;;;;5024319;28;20238;-66
2021/09/10 11:10:02;;;;;;;11.00;8.40;;;22.40;99.90;;;;;;5036988;28;20267;-65
2021/09/10 11:12:31;;;;;;;10.50;8.23;;;22.50;99.90;;;;;;5059400;28;20212;-65
2021/09/10 11:15:00;;;;;;;13.97;8.10;;;22.50;99.90;;;;;;5059327;28;20197;-65
2021/09/10 11:17:29;;;;;;;13.27;8.07;;;22.50;99.90;;;;;;5058039;28;20240;-65
2021/09/10 11:19:58;;;;;;;10.87;8.27;;;22.50;99.90;;;;;;5046444;28;20212;-64
2021/09/10 11:22:28;;;;;;;8.77;7.57;;;22.40;99.90;;;;;;5056695;28;20316;-65
2021/09/10 11:25:08;;;;;;;11.47;7.70;;;22.40;99.90;;;;;;5039173;28;20184;-64
2021/09/10 11:27:40;;;;;;;8.27;7.50;;;22.50;99.90;;;;;;5054780;28;20264;-65
2021/09/10 11:30:10;;;;;;;9.47;7.27;;;22.70;99.90;;;;;;5055049;28;20277;-65
2021/09/10 11:32:39;;;;;;;10.37;8.27;;;22.80;99.90;;;;;;5059715;28;20227;-65
2021/09/10 11:35:20;;;;;;;10.13;7.93;;;23.00;99.90;;;;;;5054528;28;20275;-66
2021/09/10 11:37:55;;;;;;;8.43;6.83;;;23.60;99.90;;;;;;5054195;28;20198;-64
2021/09/10 11:40:35;;;;;;;8.27;7.33;;;24.20;99.90;;;;;;5054232;28;20579;-64
2021/09/10 11:43:07;;;;;;;7.97;7.17;;;24.20;99.90;;;;;;5040822;28;20192;-65
2021/09/10 11:45:37;;;;;;;9.27;7.17;;;24.00;99.90;;;;;;5056379;28;20411;-64
2021/09/10 11:48:08;;;;;;;9.47;7.17;;;24.00;99.90;;;;;;5057496;28;20232;-64
2021/09/10 11:51:01;;;;;;;8.23;6.70;;;24.10;99.90;;;;;;5032009;28;20185;-65
2021/09/10 11:53:33;;;;;;;7.00;6.33;;;24.00;99.90;;;;;;5005908;28;20260;-64
2021/09/10 11:56:06;;;;;;;9.77;6.87;;;23.90;99.90;;;;;;5049169;28;20202;-65
2021/09/10 11:58:42;;;;;;;7.50;6.70;;;23.70;99.90;;;;;;5038341;28;20193;-65
2021/09/10 12:01:21;;;;;;;11.87;7.33;;;23.70;99.90;;;;;;5057890;28;20210;-65
2021/09/10 12:03:53;;;;;;;7.17;6.57;;;23.60;99.90;;;;;;5056002;28;20173;-64
2021/09/10 12:06:24;;;;;;;8.07;6.80;;;23.60;99.90;;;;;;5036305;28;20231;-65
2021/09/10 12:09:14;;;;;;;8.63;7.30;;;23.60;99.90;;;;;;5059061;28;20181;-64
2021/09/10 12:12:10;;;;;;;8.03;7.10;;;23.50;99.90;;;;;;5034259;28;20178;-65
2021/09/10 12:14:41;;;;;;;7.57;6.43;;;23.30;99.90;;;;;;5056427;28;20181;-65
2021/09/10 12:17:29;;;;;;;7.90;7.03;;;23.20;99.90;;;;;;5039735;28;20181;-65
2021/09/10 12:20:01;;;;;;;7.53;6.83;;;23.20;99.90;;;;;;5052263;28;20197;-64
2021/09/10 12:22:38;;;;;;;7.13;6.53;;;23.20;99.90;;;;;;5057075;28;20205;-65
2021/09/10 12:25:23;;;;;;;6.83;6.27;;;23.30;99.90;;;;;;5032281;28;20464;-64
2021/09/10 12:27:54;;;;;;;7.87;6.00;;;23.30;99.90;;;;;;5042203;28;20530;-66
2021/09/10 12:30:24;;;;;;;6.43;5.80;;;23.30;99.90;;;;;;5055391;28;20190;-65
2021/09/10 12:32:53;;;;;;;6.30;5.73;;;23.60;99.90;;;;;;5058528;28;20209;-65
2021/09/10 12:35:22;;;;;;;9.90;5.80;;;23.70;99.90;;;;;;5050251;28;20447;-65
2021/09/10 12:37:55;;;;;;;6.20;5.60;;;23.80;99.90;;;;;;5051588;28;20417;-65
2021/09/10 12:40:25;;;;;;;5.83;5.30;;;23.80;99.90;;;;;;5057242;28;20317;-65
2021/09/10 12:42:54;;;;;;;6.33;5.70;;;23.80;99.90;;;;;;5055623;28;20442;-65
2021/09/10 12:45:23;;;;;;;6.83;5.30;;;23.80;99.90;;;;;;5032759;28;20190;-65
2021/09/10 12:47:52;;;;;;;6.00;5.40;;;23.80;99.90;;;;;;5058295;28;20256;-65
2021/09/10 12:51:11;;;;;;;6.27;5.10;;;23.90;99.90;;;;;;5054723;28;20348;-65
2021/09/10 12:53:39;;;;;;;6.47;5.47;;;23.90;99.90;;;;;;5041719;28;20201;-65
2021/09/10 12:56:09;;;;;;;6.37;5.33;;;23.90;99.90;;;;;;5059321;28;20452;-65
2021/09/10 12:58:38;;;;;;;7.00;4.83;;;23.90;99.90;;;;;;5055658;28;20325;-65
2021/09/10 13:01:07;;;;;;;6.37;5.33;;;23.90;99.90;;;;;;5058530;28;20333;-65